Time;durP1;ratioP1;P1;durP2;ratioP2;P2;SDS_P1;SDS_P2;PMS_P1;PMS_P2;Temp;Humidity;BMP_temperature;BMP_pressure;BME280_temperature;BME280_humidity;BME280_pressure;Samples;Min_cycle;Max_cycle;Signal;HPM_P1;HPM_P2
2022/08/21 00:01:24;;;;;;;10.10;4.63;;;;;;;;;;5036244;28;20182;-67
2022/08/21 00:03:50;;;;;;;8.10;4.43;;;;;;;;;;5054172;28;20171;-68
2022/08/21 00:06:16;;;;;;;11.03;4.30;;;;;;;;;;5054391;28;20170;-68
2022/08/21 00:08:43;;;;;;;6.87;4.20;;;;;;;;;;5054539;28;20179;-67
2022/08/21 00:11:09;;;;;;;8.60;4.67;;;;;;;;;;5036095;28;20643;-68
2022/08/21 00:13:35;;;;;;;7.30;3.83;;;;;;;;;;5053855;28;20202;-68
2022/08/21 00:16:01;;;;;;;10.47;4.20;;;;;;;;;;5054010;28;20186;-68
2022/08/21 00:18:28;;;;;;;10.17;4.90;;;;;;;;;;5053834;28;20189;-68
2022/08/21 00:20:54;;;;;;;10.03;4.63;;;;;;;;;;5053794;28;20182;-67
2022/08/21 00:23:20;;;;;;;6.60;4.33;;;;;;;;;;5053650;28;20697;-68
2022/08/21 00:25:46;;;;;;;7.80;4.33;;;;;;;;;;5053652;28;20171;-67
2022/08/21 00:28:13;;;;;;;7.53;5.03;;;;;;;;;;5053156;28;20171;-68
2022/08/21 00:30:39;;;;;;;11.33;4.43;;;;;;;;;;5053869;28;20171;-68
2022/08/21 00:33:06;;;;;;;10.30;5.30;;;;;;;;;;5053553;28;20206;-68
2022/08/21 00:35:34;;;;;;;7.57;4.33;;;;;;;;;;5035613;28;20182;-68
2022/08/21 00:38:00;;;;;;;9.83;4.50;;;;;;;;;;5054054;28;20524;-68
2022/08/21 00:40:28;;;;;;;8.27;5.00;;;;;;;;;;5053490;28;20185;-68
2022/08/21 00:42:54;;;;;;;7.90;4.97;;;;;;;;;;5053224;28;20297;-68
2022/08/21 00:45:21;;;;;;;7.83;4.97;;;;;;;;;;5053708;28;20312;-68
2022/08/21 00:47:47;;;;;;;10.30;5.40;;;;;;;;;;5053310;28;20174;-67
2022/08/21 00:50:13;;;;;;;6.47;4.30;;;;;;;;;;5035522;28;20270;-67
2022/08/21 00:52:40;;;;;;;11.10;4.93;;;;;;;;;;5035176;28;20271;-67
2022/08/21 00:55:07;;;;;;;12.03;5.17;;;;;;;;;;5053387;28;20257;-67
2022/08/21 00:57:36;;;;;;;8.67;5.47;;;;;;;;;;5035394;28;20182;-68
2022/08/21 01:00:05;;;;;;;11.37;5.20;;;;;;;;;;5053338;28;20178;-68
2022/08/21 01:02:31;;;;;;;7.27;5.10;;;;;;;;;;5053626;28;20255;-68
2022/08/21 01:04:57;;;;;;;6.80;4.87;;;;;;;;;;5053515;28;20174;-67
2022/08/21 01:07:24;;;;;;;9.10;5.23;;;;;;;;;;5053691;28;20254;-67
2022/08/21 01:09:51;;;;;;;8.97;5.50;;;;;;;;;;5053558;28;20166;-66
2022/08/21 01:12:18;;;;;;;8.87;5.07;;;;;;;;;;5053584;28;20566;-69
2022/08/21 01:14:44;;;;;;;8.40;5.73;;;;;;;;;;5053550;28;20186;-67
2022/08/21 01:17:11;;;;;;;11.50;5.23;;;;;;;;;;5053560;28;20179;-67
2022/08/21 01:19:37;;;;;;;8.87;6.00;;;;;;;;;;5053045;28;20265;-67
2022/08/21 01:22:03;;;;;;;7.53;5.33;;;;;;;;;;5035015;28;20359;-68
2022/08/21 01:24:31;;;;;;;12.27;6.07;;;;;;;;;;5035153;28;20188;-68
2022/08/21 01:26:58;;;;;;;12.27;6.20;;;;;;;;;;5035120;28;20602;-68
2022/08/21 01:29:23;;;;;;;8.87;6.10;;;;;;;;;;5035113;28;20182;-68
2022/08/21 01:31:50;;;;;;;13.77;6.40;;;;;;;;;;5052861;28;20195;-68
2022/08/21 01:34:16;;;;;;;11.33;6.30;;;;;;;;;;5053246;28;20239;-67
2022/08/21 01:36:42;;;;;;;9.63;6.10;;;;;;;;;;5052984;28;20280;-67
2022/08/21 01:39:09;;;;;;;7.90;5.97;;;;;;;;;;5035799;28;20187;-67
2022/08/21 01:41:35;;;;;;;14.07;6.57;;;;;;;;;;5057141;28;20182;-67
2022/08/21 01:44:01;;;;;;;8.73;6.53;;;;;;;;;;5060456;28;20186;-67
2022/08/21 01:46:27;;;;;;;11.57;6.80;;;;;;;;;;5061956;28;20216;-68
2022/08/21 01:48:53;;;;;;;10.13;6.30;;;;;;;;;;5060898;28;20261;-68
2022/08/21 01:51:19;;;;;;;11.07;6.37;;;;;;;;;;5061293;28;20703;-68
2022/08/21 01:53:45;;;;;;;8.87;7.00;;;;;;;;;;5062416;28;20202;-68
2022/08/21 01:56:12;;;;;;;9.77;6.40;;;;;;;;;;5042524;28;20183;-68
2022/08/21 01:58:38;;;;;;;8.50;6.70;;;;;;;;;;5040559;28;20182;-67
2022/08/21 02:01:04;;;;;;;7.43;6.60;;;;;;;;;;5038873;28;20328;-68
2022/08/21 02:03:30;;;;;;;8.60;6.53;;;;;;;;;;5057830;28;20206;-68
2022/08/21 02:05:56;;;;;;;11.33;7.23;;;;;;;;;;5057492;28;20178;-68
2022/08/21 02:08:25;;;;;;;11.10;7.07;;;;;;;;;;5056826;28;20171;-68
2022/08/21 02:10:52;;;;;;;10.77;6.93;;;;;;;;;;5056208;28;20178;-68
2022/08/21 02:13:19;;;;;;;8.57;6.23;;;;;;;;;;5038396;28;20293;-69
2022/08/21 02:15:45;;;;;;;9.53;6.50;;;;;;;;;;5056210;28;20257;-68
2022/08/21 02:18:11;;;;;;;11.77;6.77;;;;;;;;;;5056161;28;20202;-68
2022/08/21 02:20:39;;;;;;;10.43;7.07;;;;;;;;;;5056191;28;20232;-68
2022/08/21 02:23:05;;;;;;;14.33;7.93;;;;;;;;;;5038019;28;20220;-67
2022/08/21 02:25:32;;;;;;;11.40;7.33;;;;;;;;;;5056175;28;20649;-68
2022/08/21 02:27:58;;;;;;;12.20;7.27;;;;;;;;;;5055978;28;20188;-67
2022/08/21 02:30:26;;;;;;;10.53;7.00;;;;;;;;;;5056030;28;20196;-68
2022/08/21 02:32:52;;;;;;;11.27;8.00;;;;;;;;;;5037995;28;20207;-68
2022/08/21 02:35:19;;;;;;;10.27;7.23;;;;;;;;;;5056033;28;20190;-68
2022/08/21 02:37:46;;;;;;;10.40;7.27;;;;;;;;;;5055808;28;20183;-68
2022/08/21 02:40:13;;;;;;;10.13;7.93;;;;;;;;;;5055738;28;20182;-68
2022/08/21 02:42:39;;;;;;;12.53;8.20;;;;;;;;;;5037555;28;20215;-68
2022/08/21 02:45:06;;;;;;;14.80;7.87;;;;;;;;;;5037732;28;20551;-67
2022/08/21 02:47:31;;;;;;;11.40;6.77;;;;;;;;;;5037533;28;20186;-68
2022/08/21 02:49:57;;;;;;;8.67;7.13;;;;;;;;;;5037231;28;20179;-68
2022/08/21 02:52:24;;;;;;;12.03;8.33;;;;;;;;;;5055407;28;20209;-68
2022/08/21 02:54:50;;;;;;;9.67;7.60;;;;;;;;;;5037658;28;20240;-68
2022/08/21 02:57:16;;;;;;;8.77;7.53;;;;;;;;;;5055286;28;20189;-68
2022/08/21 02:59:42;;;;;;;13.23;8.90;;;;;;;;;;5055887;28;20178;-68
2022/08/21 03:02:08;;;;;;;12.10;8.77;;;;;;;;;;5055226;28;20209;-68
2022/08/21 03:04:34;;;;;;;11.30;8.83;;;;;;;;;;5055514;28;20655;-68
2022/08/21 03:07:00;;;;;;;13.63;8.57;;;;;;;;;;5055215;28;20224;-68
2022/08/21 03:09:26;;;;;;;14.17;8.97;;;;;;;;;;5037180;28;20206;-68
2022/08/21 03:11:52;;;;;;;11.33;8.43;;;;;;;;;;5054952;28;20281;-68
2022/08/21 03:14:18;;;;;;;15.17;10.10;;;;;;;;;;5055713;28;20592;-68
2022/08/21 03:16:44;;;;;;;15.07;9.67;;;;;;;;;;5037009;28;20209;-68
2022/08/21 03:19:10;;;;;;;14.87;9.70;;;;;;;;;;5055206;28;20286;-68
2022/08/21 03:21:36;;;;;;;12.70;8.90;;;;;;;;;;5055321;28;20202;-68
2022/08/21 03:24:03;;;;;;;11.93;8.97;;;;;;;;;;5054944;28;20166;-68
2022/08/21 03:26:29;;;;;;;11.73;9.00;;;;;;;;;;5054850;28;20258;-68
2022/08/21 03:28:56;;;;;;;13.60;9.60;;;;;;;;;;5036913;28;20187;-68
2022/08/21 03:31:22;;;;;;;19.40;10.37;;;;;;;;;;5055159;28;20173;-67
2022/08/21 03:33:48;;;;;;;16.20;10.63;;;;;;;;;;5054661;28;20214;-68
2022/08/21 03:36:14;;;;;;;13.13;9.70;;;;;;;;;;5054657;28;20186;-68
2022/08/21 03:38:40;;;;;;;13.00;9.03;;;;;;;;;;5054605;28;20186;-67
2022/08/21 03:41:07;;;;;;;15.97;10.00;;;;;;;;;;5054535;28;20210;-67
2022/08/21 03:43:33;;;;;;;14.93;10.43;;;;;;;;;;5054359;28;20214;-67
2022/08/21 03:46:00;;;;;;;12.30;9.47;;;;;;;;;;5054540;28;20181;-67
2022/08/21 03:48:26;;;;;;;11.30;9.13;;;;;;;;;;5055179;28;20300;-67
2022/08/21 03:50:52;;;;;;;16.13;10.47;;;;;;;;;;5054794;28;20178;-68
2022/08/21 03:53:18;;;;;;;11.83;10.20;;;;;;;;;;5054237;28;20222;-67
2022/08/21 03:55:46;;;;;;;15.60;10.20;;;;;;;;;;5054521;28;20194;-68
2022/08/21 03:58:13;;;;;;;14.10;10.13;;;;;;;;;;5036359;28;20328;-68
2022/08/21 04:00:39;;;;;;;14.53;10.57;;;;;;;;;;5054065;28;20178;-68
2022/08/21 04:03:06;;;;;;;14.80;10.73;;;;;;;;;;5053065;28;20233;-68
2022/08/21 04:05:32;;;;;;;14.40;10.80;;;;;;;;;;5054609;28;20177;-68
2022/08/21 04:07:59;;;;;;;13.83;10.60;;;;;;;;;;5054563;28;20181;-68
2022/08/21 04:10:26;;;;;;;14.27;10.97;;;;;;;;;;5054257;28;20279;-68
2022/08/21 04:12:53;;;;;;;16.13;11.77;;;;;;;;;;5053849;28;20194;-67
2022/08/21 04:15:20;;;;;;;14.90;11.70;;;;;;;;;;5037144;28;20182;-67
2022/08/21 04:17:46;;;;;;;15.17;11.00;;;;;;;;;;5036035;28;20190;-68
2022/08/21 04:20:12;;;;;;;15.07;11.77;;;;;;;;;;5053851;28;20182;-68
2022/08/21 04:22:38;;;;;;;21.23;11.77;;;;;;;;;;5035819;28;20210;-68
2022/08/21 04:25:05;;;;;;;15.33;10.90;;;;;;;;;;5054062;28;20639;-68
2022/08/21 04:27:31;;;;;;;16.30;11.27;;;;;;;;;;5053707;28;20171;-68
2022/08/21 04:29:57;;;;;;;13.80;11.27;;;;;;;;;;5053904;28;20235;-68
2022/08/21 04:32:26;;;;;;;13.90;11.43;;;;;;;;;;5053533;28;20198;-68
2022/08/21 04:34:58;;;;;;;12.63;10.47;;;;;;;;;;5054108;28;20223;-68
2022/08/21 04:37:24;;;;;;;15.80;11.77;;;;;;;;;;5035682;28;20190;-68
2022/08/21 04:39:50;;;;;;;17.23;11.97;;;;;;;;;;5053520;28;20181;-68
2022/08/21 04:42:16;;;;;;;14.57;11.40;;;;;;;;;;5035699;28;20202;-67
2022/08/21 04:44:42;;;;;;;18.43;11.87;;;;;;;;;;5053469;28;20189;-67
2022/08/21 04:47:08;;;;;;;17.47;11.93;;;;;;;;;;5035564;28;20654;-68
2022/08/21 04:49:34;;;;;;;16.60;12.70;;;;;;;;;;5053653;28;20193;-68
2022/08/21 04:52:01;;;;;;;13.70;12.30;;;;;;;;;;5035364;28;20817;-68
2022/08/21 04:54:27;;;;;;;16.93;13.53;;;;;;;;;;5053178;28;20205;-68
2022/08/21 04:56:59;;;;;;;17.17;13.27;;;;;;;;;;5053915;28;20631;-68
2022/08/21 04:59:27;;;;;;;22.70;13.90;;;;;;;;;;5053245;28;20162;-68
2022/08/21 05:01:56;;;;;;;16.30;13.07;;;;;;;;;;5035142;28;20206;-68
2022/08/21 05:04:23;;;;;;;18.60;13.07;;;;;;;;;;5035365;28;20556;-68
2022/08/21 05:06:50;;;;;;;19.80;13.23;;;;;;;;;;5053083;28;20181;-68
2022/08/21 05:09:17;;;;;;;20.13;12.77;;;;;;;;;;5035211;28;20174;-68
2022/08/21 05:11:43;;;;;;;18.33;12.87;;;;;;;;;;5052971;28;20673;-67
2022/08/21 05:14:11;;;;;;;17.57;12.53;;;;;;;;;;5052881;28;20178;-68
2022/08/21 05:16:37;;;;;;;17.57;12.37;;;;;;;;;;5052987;28;20253;-68
2022/08/21 05:19:03;;;;;;;20.60;12.80;;;;;;;;;;5052995;28;20178;-68
2022/08/21 05:21:29;;;;;;;20.50;12.17;;;;;;;;;;5053306;28;20182;-68
2022/08/21 05:23:55;;;;;;;17.70;11.53;;;;;;;;;;5035072;28;20626;-68
2022/08/21 05:26:21;;;;;;;16.43;11.47;;;;;;;;;;5090126;23;20229;-69
2022/08/21 05:28:47;;;;;;;22.93;12.13;;;;;;;;;;5072826;28;20268;-69
2022/08/21 05:31:13;;;;;;;18.17;11.53;;;;;;;;;;5073064;28;20182;-69
2022/08/21 05:33:39;;;;;;;16.97;12.23;;;;;;;;;;5074327;28;20204;-68
2022/08/21 05:36:05;;;;;;;17.80;11.60;;;;;;;;;;5074042;28;20202;-68
2022/08/21 05:38:31;;;;;;;16.63;11.30;;;;;;;;;;5074082;28;20206;-69
2022/08/21 05:40:57;;;;;;;13.10;10.20;;;;;;;;;;5074492;28;20173;-69
2022/08/21 05:43:23;;;;;;;13.93;10.00;;;;;;;;;;5072640;28;20206;-68
2022/08/21 05:45:49;;;;;;;12.30;8.93;;;;;;;;;;5072171;28;20190;-69
2022/08/21 05:48:16;;;;;;;13.93;8.30;;;;;;;;;;5072689;28;20264;-69
2022/08/21 05:50:43;;;;;;;13.00;8.30;;;;;;;;;;5074845;28;20174;-69
2022/08/21 05:53:10;;;;;;;13.90;8.33;;;;;;;;;;5072679;28;20354;-68
2022/08/21 05:55:36;;;;;;;13.23;7.63;;;;;;;;;;5072453;28;20215;-69
2022/08/21 05:58:02;;;;;;;10.23;7.60;;;;;;;;;;5073838;28;20185;-68
2022/08/21 06:00:28;;;;;;;11.63;6.77;;;;;;;;;;5072500;28;20192;-69
2022/08/21 06:02:54;;;;;;;12.60;7.00;;;;;;;;;;5073540;28;20665;-69
2022/08/21 06:05:20;;;;;;;11.20;6.47;;;;;;;;;;5072358;28;20202;-69
2022/08/21 06:07:46;;;;;;;10.43;6.60;;;;;;;;;;5072307;28;20615;-69
2022/08/21 06:10:13;;;;;;;10.03;6.47;;;;;;;;;;5072826;28;20201;-69
2022/08/21 06:12:39;;;;;;;9.67;6.30;;;;;;;;;;5072562;28;20217;-69
2022/08/21 06:15:05;;;;;;;15.97;6.97;;;;;;;;;;5074015;28;20182;-69
2022/08/21 06:17:31;;;;;;;9.53;5.90;;;;;;;;;;5072283;28;20261;-69
2022/08/21 06:19:57;;;;;;;8.47;6.00;;;;;;;;;;5072111;28;20209;-69
2022/08/21 06:22:23;;;;;;;9.87;5.97;;;;;;;;;;5073663;28;20227;-68
2022/08/21 06:24:49;;;;;;;10.23;7.17;;;;;;;;;;5073299;28;20197;-69
2022/08/21 06:27:15;;;;;;;7.83;6.40;;;;;;;;;;5077024;28;20208;-69
2022/08/21 06:29:41;;;;;;;12.13;5.73;;;;;;;;;;5075860;28;20562;-69
2022/08/21 06:32:08;;;;;;;12.47;6.20;;;;;;;;;;5076068;28;20181;-70
2022/08/21 06:34:37;;;;;;;12.23;6.13;;;;;;;;;;5077163;28;20202;-69
2022/08/21 06:37:03;;;;;;;9.43;6.20;;;;;;;;;;5075775;28;20198;-69
2022/08/21 06:39:29;;;;;;;16.90;7.33;;;;;;;;;;5076977;28;20188;-69
2022/08/21 06:41:55;;;;;;;15.53;6.47;;;;;;;;;;5075609;28;20201;-69
2022/08/21 06:44:21;;;;;;;9.57;6.00;;;;;;;;;;5077096;28;20227;-69
2022/08/21 06:46:48;;;;;;;11.50;6.27;;;;;;;;;;5075934;28;20206;-69
2022/08/21 06:49:13;;;;;;;10.73;6.10;;;;;;;;;;5075651;28;20178;-69
2022/08/21 06:51:40;;;;;;;10.07;5.20;;;;;;;;;;5077119;28;20166;-69
2022/08/21 06:54:06;;;;;;;10.40;6.50;;;;;;;;;;5076893;28;20178;-69
2022/08/21 06:56:33;;;;;;;9.90;6.03;;;;;;;;;;5076841;28;20281;-69
2022/08/21 06:58:59;;;;;;;11.93;5.90;;;;;;;;;;5076686;28;20174;-69
2022/08/21 07:01:26;;;;;;;9.63;5.57;;;;;;;;;;5075503;28;20189;-69
2022/08/21 07:03:52;;;;;;;12.30;5.80;;;;;;;;;;5076875;28;20198;-69
2022/08/21 07:06:18;;;;;;;11.10;5.27;;;;;;;;;;5076160;28;20220;-69
2022/08/21 07:08:44;;;;;;;8.90;4.20;;;;;;;;;;5076515;28;20176;-67
2022/08/21 07:11:13;;;;;;;10.43;4.07;;;;;;;;;;5076778;28;20209;-70
2022/08/21 07:13:39;;;;;;;8.87;4.40;;;;;;;;;;5075359;28;20209;-69
2022/08/21 07:16:05;;;;;;;11.70;4.43;;;;;;;;;;5075087;28;20201;-69
2022/08/21 07:18:31;;;;;;;7.57;3.60;;;;;;;;;;5075552;28;20181;-69
2022/08/21 07:20:57;;;;;;;10.13;4.17;;;;;;;;;;5076934;28;20646;-69
2022/08/21 07:23:26;;;;;;;8.60;4.00;;;;;;;;;;5075753;28;20208;-69
2022/08/21 07:25:52;;;;;;;8.07;3.40;;;;;;;;;;5076882;28;20288;-69
2022/08/21 07:28:19;;;;;;;8.73;3.67;;;;;;;;;;5076971;28;20174;-69
2022/08/21 07:30:45;;;;;;;6.33;2.73;;;;;;;;;;5076633;28;20619;-70
2022/08/21 07:33:11;;;;;;;6.33;3.20;;;;;;;;;;5077745;28;20188;-69
2022/08/21 07:35:37;;;;;;;7.90;3.40;;;;;;;;;;5078421;28;20198;-70
2022/08/21 07:38:03;;;;;;;6.80;3.13;;;;;;;;;;5076149;28;20248;-71
2022/08/21 07:40:29;;;;;;;7.00;3.50;;;;;;;;;;5077733;28;20178;-69
2022/08/21 07:42:55;;;;;;;6.83;3.40;;;;;;;;;;5076677;28;20206;-71
2022/08/21 07:45:24;;;;;;;5.30;2.80;;;;;;;;;;5075179;28;20197;-71
2022/08/21 07:47:50;;;;;;;6.33;2.63;;;;;;;;;;5074738;28;20182;-69
2022/08/21 07:50:16;;;;;;;8.40;3.13;;;;;;;;;;5074853;28;20246;-70
2022/08/21 07:52:42;;;;;;;9.63;3.10;;;;;;;;;;5074906;28;20181;-70
2022/08/21 07:55:09;;;;;;;6.83;2.73;;;;;;;;;;5074713;28;20255;-70
2022/08/21 07:57:36;;;;;;;8.80;2.97;;;;;;;;;;5074871;28;20231;-70
2022/08/21 08:00:04;;;;;;;5.87;2.80;;;;;;;;;;5075906;28;20173;-70
2022/08/21 08:02:31;;;;;;;6.67;2.80;;;;;;;;;;5075808;28;20276;-74
2022/08/21 08:05:05;;;;;;;7.23;2.53;;;;;;;;;;5074306;28;20205;-68
2022/08/21 08:07:31;;;;;;;8.30;2.57;;;;;;;;;;5075396;28;20170;-70
2022/08/21 08:09:58;;;;;;;5.30;2.40;;;;;;;;;;5074350;28;20254;-70
2022/08/21 08:12:29;;;;;;;4.63;2.23;;;;;;;;;;5074341;28;20650;-70
2022/08/21 08:14:56;;;;;;;4.60;2.27;;;;;;;;;;5075914;28;20158;-70
2022/08/21 08:17:23;;;;;;;5.60;2.40;;;;;;;;;;5072946;28;20537;-67
2022/08/21 08:19:49;;;;;;;5.53;2.33;;;;;;;;;;5074159;28;20312;-67
2022/08/21 08:22:17;;;;;;;7.93;2.47;;;;;;;;;;5074232;28;20213;-67
2022/08/21 08:24:43;;;;;;;4.67;2.57;;;;;;;;;;5074162;28;20327;-66
2022/08/21 08:27:08;;;;;;;5.47;2.10;;;;;;;;;;5073965;28;20209;-67
2022/08/21 08:29:35;;;;;;;5.37;2.30;;;;;;;;;;5072639;28;20211;-67
2022/08/21 08:32:01;;;;;;;9.73;2.30;;;;;;;;;;5073798;28;20178;-67
2022/08/21 08:34:27;;;;;;;5.23;2.47;;;;;;;;;;5073589;28;20173;-66
2022/08/21 08:36:53;;;;;;;5.57;2.33;;;;;;;;;;5073926;28;20231;-67
2022/08/21 08:39:19;;;;;;;5.70;2.70;;;;;;;;;;5073628;28;20182;-67
2022/08/21 08:41:47;;;;;;;4.13;2.00;;;;;;;;;;5073425;28;20229;-67
2022/08/21 08:44:13;;;;;;;7.30;2.73;;;;;;;;;;5074173;28;20257;-66
2022/08/21 08:46:44;;;;;;;6.23;2.27;;;;;;;;;;5073824;28;20232;-67
2022/08/21 08:49:43;;;;;;;7.00;2.40;;;;;;;;;;5073017;28;20196;-67
2022/08/21 08:52:19;;;;;;;6.83;2.50;;;;;;;;;;5050352;28;20193;-66
2022/08/21 08:54:49;;;;;;;4.17;2.30;;;;;;;;;;5073610;28;20170;-66
2022/08/21 08:57:16;;;;;;;5.90;2.30;;;;;;;;;;5073273;28;20197;-66
2022/08/21 08:59:46;;;;;;;3.57;2.20;;;;;;;;;;5073214;28;20178;-65
2022/08/21 09:02:12;;;;;;;5.97;2.60;;;;;;;;;;5073547;28;20696;-65
2022/08/21 09:04:39;;;;;;;6.13;2.53;;;;;;;;;;5073864;28;20178;-66
2022/08/21 09:07:13;;;;;;;5.47;2.23;;;;;;;;;;5073312;28;20198;-65
2022/08/21 09:09:45;;;;;;;4.40;1.93;;;;;;;;;;5072259;28;20626;-66
2022/08/21 09:12:26;;;;;;;3.50;2.20;;;;;;;;;;5073736;28;20181;-66
2022/08/21 09:15:11;;;;;;;7.93;2.57;;;;;;;;;;5073743;28;20162;-65
2022/08/21 09:17:56;;;;;;;4.27;2.00;;;;;;;;;;5072009;28;20177;-65
2022/08/21 09:20:34;;;;;;;5.50;2.13;;;;;;;;;;5073570;28;20182;-66
2022/08/21 09:23:01;;;;;;;5.40;2.30;;;;;;;;;;5073084;28;20243;-65
2022/08/21 09:25:28;;;;;;;4.73;2.47;;;;;;;;;;5071838;28;20217;-67
2022/08/21 09:27:55;;;;;;;3.30;2.13;;;;;;;;;;5073292;28;20231;-66
2022/08/21 09:30:30;;;;;;;5.40;1.93;;;;;;;;;;5071839;28;20677;-65
2022/08/21 09:32:56;;;;;;;6.60;2.37;;;;;;;;;;5073369;28;20177;-65
2022/08/21 09:35:23;;;;;;;8.90;2.23;;;;;;;;;;5072986;28;20677;-65
2022/08/21 09:37:55;;;;;;;2.90;2.00;;;;;;;;;;5073138;28;20544;-66
2022/08/21 09:40:30;;;;;;;4.17;2.23;;;;;;;;;;5072868;28;20260;-66
2022/08/21 09:42:57;;;;;;;4.83;2.13;;;;;;;;;;5071369;28;20199;-65
2022/08/21 09:45:23;;;;;;;5.10;2.17;;;;;;;;;;5072715;28;20198;-66
2022/08/21 09:47:49;;;;;;;4.80;2.43;;;;;;;;;;5072961;28;20180;-67
2022/08/21 09:50:22;;;;;;;5.30;1.93;;;;;;;;;;5073217;28;20178;-69
2022/08/21 09:52:50;;;;;;;5.37;1.77;;;;;;;;;;5072876;28;20638;-68
2022/08/21 09:58:31;;;;;;;4.77;2.17;;;;;;;;;;5067145;28;20757;-65
2022/08/21 10:01:01;;;;;;;5.43;2.30;;;;;;;;;;5074853;28;20205;-69
2022/08/21 10:03:27;;;;;;;4.40;2.23;;;;;;;;;;5076399;28;20275;-65
2022/08/21 10:06:01;;;;;;;5.67;2.30;;;;;;;;;;5076456;28;20673;-65
2022/08/21 10:08:28;;;;;;;6.90;2.50;;;;;;;;;;5076534;28;20169;-65
2022/08/21 10:11:02;;;;;;;5.13;2.20;;;;;;;;;;5076375;28;20546;-65
2022/08/21 10:13:46;;;;;;;5.80;2.00;;;;;;;;;;5076879;28;20280;-64
2022/08/21 10:16:16;;;;;;;7.47;2.53;;;;;;;;;;5076346;28;20197;-65
2022/08/21 10:18:45;;;;;;;5.73;2.37;;;;;;;;;;5076243;28;20193;-65
2022/08/21 10:21:18;;;;;;;4.40;2.20;;;;;;;;;;5075064;28;20689;-66
2022/08/21 10:23:55;;;;;;;5.23;2.53;;;;;;;;;;5075011;28;20194;-65
2022/08/21 10:26:46;;;;;;;5.40;2.10;;;;;;;;;;5076192;28;20597;-65
2022/08/21 10:29:32;;;;;;;4.87;2.20;;;;;;;;;;5076347;28;20637;-65
2022/08/21 10:32:01;;;;;;;6.63;2.00;;;;;;;;;;5075683;28;20200;-66
2022/08/21 10:34:45;;;;;;;6.00;2.20;;;;;;;;;;5076280;28;20371;-66
2022/08/21 10:37:14;;;;;;;4.27;2.00;;;;;;;;;;5075784;28;20190;-65
2022/08/21 10:39:50;;;;;;;2.73;2.00;;;;;;;;;;5075936;28;20202;-65
2022/08/21 10:42:20;;;;;;;5.20;2.07;;;;;;;;;;5076195;28;20185;-65
2022/08/21 10:44:55;;;;;;;4.13;1.93;;;;;;;;;;5076114;28;20201;-65
2022/08/21 10:47:28;;;;;;;4.90;1.80;;;;;;;;;;5074454;28;20690;-66
2022/08/21 10:50:06;;;;;;;3.10;1.83;;;;;;;;;;5074360;28;20170;-65
2022/08/21 10:52:41;;;;;;;4.63;2.00;;;;;;;;;;5074696;28;20641;-66
2022/08/21 10:55:22;;;;;;;3.80;1.60;;;;;;;;;;5075872;28;20181;-65
2022/08/21 10:57:57;;;;;;;6.13;1.80;;;;;;;;;;5075598;28;20170;-65
2022/08/21 11:00:27;;;;;;;2.10;1.60;;;;;;;;;;5075451;28;20174;-65
2022/08/21 11:02:58;;;;;;;3.17;1.77;;;;;;;;;;5075364;28;20258;-66
2022/08/21 11:05:26;;;;;;;8.00;1.83;;;;;;;;;;5075947;28;20194;-65
2022/08/21 11:07:54;;;;;;;2.77;1.50;;;;;;;;;;5074038;28;20178;-65
2022/08/21 11:10:25;;;;;;;2.83;1.70;;;;;;;;;;5075868;28;20177;-65
2022/08/21 11:12:56;;;;;;;2.67;1.60;;;;;;;;;;5074847;28;20681;-65
2022/08/21 11:15:28;;;;;;;3.33;1.80;;;;;;;;;;5075411;28;20194;-65
2022/08/21 11:18:02;;;;;;;2.13;1.40;;;;;;;;;;5075158;28;20181;-66
2022/08/21 11:20:31;;;;;;;4.00;1.83;;;;;;;;;;5075359;28;20610;-66
2022/08/21 11:22:57;;;;;;;6.63;1.80;;;;;;;;;;5075059;28;20693;-66
2022/08/21 11:25:40;;;;;;;2.57;1.50;;;;;;;;;;5074824;28;20209;-65
2022/08/21 11:28:24;;;;;;;2.93;1.57;;;;;;;;;;5073729;28;20165;-67
2022/08/21 11:31:15;;;;;;;2.73;1.60;;;;;;;;;;5075032;28;20201;-66
2022/08/21 11:33:44;;;;;;;5.27;1.63;;;;;;;;;;5074979;28;20174;-66
2022/08/21 11:36:36;;;;;;;2.97;1.50;;;;;;;;;;5074973;28;20567;-66
2022/08/21 11:39:02;;;;;;;3.17;1.77;;;;;;;;;;5071524;28;20186;-66
2022/08/21 11:41:31;;;;;;;4.37;1.50;;;;;;;;;;5074610;28;20178;-67
2022/08/21 11:44:17;;;;;;;3.30;1.73;;;;;;;;;;5074497;28;20229;-66
2022/08/21 11:47:03;;;;;;;2.40;1.67;;;;;;;;;;5074544;28;20197;-66
2022/08/21 11:49:29;;;;;;;3.43;1.63;;;;;;;;;;5063674;28;20555;-66
2022/08/21 11:51:55;;;;;;;4.17;1.83;;;;;;;;;;5074856;28;20165;-67
2022/08/21 11:54:44;;;;;;;2.90;1.63;;;;;;;;;;5074514;28;20181;-67
2022/08/21 11:57:27;;;;;;;3.27;1.57;;;;;;;;;;5067677;28;20214;-66
2022/08/21 12:00:03;;;;;;;2.10;1.40;;;;;;;;;;5073625;28;20181;-70
2022/08/21 12:02:31;;;;;;;2.77;1.70;;;;;;;;;;5074649;28;20198;-69
2022/08/21 12:05:03;;;;;;;4.20;1.70;;;;;;;;;;5076912;28;20735;-69
2022/08/21 12:07:34;;;;;;;3.20;1.70;;;;;;;;;;5076228;28;20296;-69
2022/08/21 12:10:01;;;;;;;2.53;1.53;;;;;;;;;;5058665;22;20234;-67
2022/08/21 12:12:33;;;;;;;5.93;2.20;;;;;;;;;;5034379;28;20636;-67
2022/08/21 12:15:12;;;;;;;3.17;1.57;;;;;;;;;;5034604;28;20268;-67
2022/08/21 12:17:40;;;;;;;4.43;1.50;;;;;;;;;;5034474;28;20213;-67
2022/08/21 12:20:26;;;;;;;3.97;1.60;;;;;;;;;;5033019;28;20632;-67
2022/08/21 12:23:03;;;;;;;2.83;1.53;;;;;;;;;;5022213;28;20222;-67
2022/08/21 12:25:38;;;;;;;4.40;1.60;;;;;;;;;;5034761;28;20159;-67
2022/08/21 12:28:08;;;;;;;2.07;1.60;;;;;;;;;;5034482;28;20202;-67
2022/08/21 12:30:37;;;;;;;5.43;1.87;;;;;;;;;;5032812;28;20640;-67
2022/08/21 12:33:04;;;;;;;3.67;1.63;;;;;;;;;;5032574;28;20179;-67
2022/08/21 12:35:33;;;;;;;3.87;1.90;;;;;;;;;;5033712;28;20179;-67
2022/08/21 12:38:08;;;;;;;3.93;1.70;;;;;;;;;;5033592;28;20233;-67
2022/08/21 12:40:42;;;;;;;5.23;2.00;;;;;;;;;;5033780;28;20285;-67
2022/08/21 12:43:13;;;;;;;4.40;1.70;;;;;;;;;;5032779;28;20220;-67
2022/08/21 12:45:43;;;;;;;4.77;1.70;;;;;;;;;;5034529;28;20277;-67
2022/08/21 12:48:20;;;;;;;5.10;2.03;;;;;;;;;;5033429;28;20515;-66
2022/08/21 12:50:53;;;;;;;1.57;1.47;;;;;;;;;;5033845;28;20170;-67
2022/08/21 12:53:31;;;;;;;5.77;1.60;;;;;;;;;;5032317;28;20202;-67
2022/08/21 12:56:01;;;;;;;3.70;1.40;;;;;;;;;;5034068;28;20191;-67
2022/08/21 12:58:28;;;;;;;5.40;1.90;;;;;;;;;;5033591;28;20203;-67
2022/08/21 13:00:57;;;;;;;3.03;1.67;;;;;;;;;;5033202;28;20174;-67
2022/08/21 13:03:23;;;;;;;3.33;1.80;;;;;;;;;;5033006;28;20320;-67
2022/08/21 13:05:51;;;;;;;4.30;1.90;;;;;;;;;;5032003;28;20194;-67
2022/08/21 13:08:19;;;;;;;5.10;2.10;;;;;;;;;;5033541;28;20171;-67
2022/08/21 13:10:48;;;;;;;4.77;2.00;;;;;;;;;;5032190;28;20186;-67
2022/08/21 13:13:20;;;;;;;4.40;2.00;;;;;;;;;;5032077;28;20187;-66
2022/08/21 13:15:46;;;;;;;4.93;2.23;;;;;;;;;;5031758;28;20220;-67
2022/08/21 13:18:20;;;;;;;5.40;2.30;;;;;;;;;;5031645;28;20278;-67
2022/08/21 13:20:46;;;;;;;3.63;1.83;;;;;;;;;;5033374;28;20163;-67
2022/08/21 13:23:26;;;;;;;2.37;1.67;;;;;;;;;;5032804;28;20233;-67
2022/08/21 13:25:52;;;;;;;5.47;2.03;;;;;;;;;;5033002;28;20625;-67
2022/08/21 13:28:18;;;;;;;6.63;2.10;;;;;;;;;;5031451;28;20183;-67
2022/08/21 13:30:46;;;;;;;3.83;1.93;;;;;;;;;;5032835;28;20187;-67
2022/08/21 13:33:13;;;;;;;2.37;2.00;;;;;;;;;;5032989;28;20218;-67
2022/08/21 13:36:14;;;;;;;5.23;2.17;;;;;;;;;;5035922;28;20705;-67
2022/08/21 13:38:42;;;;;;;4.00;2.03;;;;;;;;;;5034702;28;20721;-67
2022/08/21 13:41:27;;;;;;;4.30;2.00;;;;;;;;;;5036312;28;20549;-67
2022/08/21 13:43:58;;;;;;;3.40;1.80;;;;;;;;;;5037034;28;20207;-67
2022/08/21 13:46:27;;;;;;;5.80;2.00;;;;;;;;;;5036928;28;20253;-66
2022/08/21 13:48:54;;;;;;;4.23;2.60;;;;;;;;;;5035405;28;20218;-67
2022/08/21 13:51:20;;;;;;;3.43;2.27;;;;;;;;;;5036708;28;20198;-67
2022/08/21 13:53:51;;;;;;;6.17;2.70;;;;;;;;;;5036613;28;20199;-67
2022/08/21 13:56:31;;;;;;;3.73;2.00;;;;;;;;;;5036854;28;20247;-68
2022/08/21 13:58:58;;;;;;;4.90;1.83;;;;;;;;;;5035301;28;20271;-66
2022/08/21 14:01:29;;;;;;;6.53;1.80;;;;;;;;;;5035246;28;20662;-67
2022/08/21 14:04:00;;;;;;;5.73;2.43;;;;;;;;;;5035140;28;20257;-67
2022/08/21 14:06:28;;;;;;;7.80;2.30;;;;;;;;;;5036818;28;20164;-67
2022/08/21 14:08:53;;;;;;;3.30;2.10;;;;;;;;;;5036203;28;20215;-67
2022/08/21 14:11:20;;;;;;;7.83;2.03;;;;;;;;;;5036569;28;20534;-67
2022/08/21 14:13:48;;;;;;;3.57;2.00;;;;;;;;;;5036294;28;20263;-67
2022/08/21 14:16:14;;;;;;;7.43;1.90;;;;;;;;;;5035047;28;20179;-67
2022/08/21 14:18:54;;;;;;;6.47;2.97;;;;;;;;;;5036145;28;20659;-67
2022/08/21 14:21:25;;;;;;;4.33;1.90;;;;;;;;;;5036531;28;20183;-66
2022/08/21 14:24:04;;;;;;;4.50;2.10;;;;;;;;;;5036144;28;20206;-67
2022/08/21 14:26:30;;;;;;;3.17;2.07;;;;;;;;;;5035307;28;20183;-67
2022/08/21 14:28:59;;;;;;;4.33;2.10;;;;;;;;;;5035993;28;20719;-66
2022/08/21 14:31:29;;;;;;;3.07;1.90;;;;;;;;;;5036027;28;20600;-67
2022/08/21 14:33:55;;;;;;;7.45;2.10;;;;;;;;;;5036019;28;20175;-67
2022/08/21 14:36:21;;;;;;;3.77;1.90;;;;;;;;;;5036239;28;20186;-67
2022/08/21 14:38:47;;;;;;;5.97;2.07;;;;;;;;;;5035841;28;20203;-66
2022/08/21 14:41:18;;;;;;;2.83;1.90;;;;;;;;;;5036378;28;20637;-67
2022/08/21 14:43:45;;;;;;;6.00;2.20;;;;;;;;;;5034503;28;20207;-67
2022/08/21 14:46:13;;;;;;;2.85;1.95;;;;;;;;;;5035555;28;20181;-67
2022/08/21 14:48:39;;;;;;;5.13;1.88;;;;;;;;;;5035635;28;20282;-67